Time,TemperatureF,DewpointF,PressureIn,WindDirection,WindDirectionDegrees,WindSpeedMPH,WindSpeedGustMPH,Humidity,HourlyPrecipIn,Conditions,Clouds,dailyrainin,SoftwareType,DateUTC
2013-09-28 00:15:00,-999.9,-99.9,30.22,North,32767,-999.0,-999.0,255,-99.99,,,0.00,Wunderground v.1.15,2013-09-28 04:15:00,
2013-09-28 00:20:00,-999.9,-99.9,30.22,North,32767,-999.0,-999.0,255,-99.99,,,0.00,Wunderground v.1.15,2013-09-28 04:20:00,
2013-09-28 00:25:00,-999.9,-99.9,30.22,North,32767,-999.0,-999.0,255,-99.99,,,0.00,Wunderground v.1.15,2013-09-28 04:25:00,
2013-09-28 00:55:00,52.7,50.4,30.22,SSW,205,0.0,-999.0,92,0.00,,,0.00,Wunderground v.1.15,2013-09-28 04:55:00,
2013-09-28 01:10:00,52.3,50.0,30.22,SSW,200,0.0,-999.0,92,0.00,,,0.00,Wunderground v.1.15,2013-09-28 05:10:00,
2013-09-28 01:20:00,52.4,50.7,30.23,SW,231,0.0,-999.0,94,0.00,,,0.00,Wunderground v.1.15,2013-09-28 05:20:00,
2013-09-28 01:30:00,52.3,50.6,30.22,SSW,198,2.0,-999.0,94,0.00,,,0.00,Wunderground v.1.15,2013-09-28 05:30:00,
2013-09-28 01:35:00,52.3,50.6,30.22,SW,218,2.0,-999.0,94,0.00,,,0.00,Wunderground v.1.15,2013-09-28 05:35:00,
2013-09-28 01:45:00,53.0,51.6,30.23,SSW,205,3.0,-999.0,95,0.00,,,0.00,Wunderground v.1.15,2013-09-28 05:45:00,
2013-09-28 01:55:00,53.0,51.3,30.23,South,191,0.0,-999.0,94,0.00,,,0.00,Wunderground v.1.15,2013-09-28 05:55:00,
2013-09-28 02:10:00,53.4,52.0,30.23,SSW,211,0.0,-999.0,95,0.00,,,0.00,Wunderground v.1.15,2013-09-28 06:10:00,
2013-09-28 02:15:00,53.6,51.9,30.23,SSW,212,1.0,-999.0,94,0.00,,,0.00,Wunderground v.1.15,2013-09-28 06:15:00,
2013-09-28 02:25:00,53.7,52.0,30.23,SSW,200,2.0,-999.0,94,0.00,,,0.00,Wunderground v.1.15,2013-09-28 06:25:00,
2013-09-28 02:30:00,53.8,52.1,30.22,SSW,200,2.0,-999.0,94,0.00,,,0.00,Wunderground v.1.15,2013-09-28 06:30:00,
2013-09-28 02:45:00,54.3,52.6,30.22,SSW,210,0.0,-999.0,94,0.00,,,0.00,Wunderground v.1.15,2013-09-28 06:45:00,
2013-09-28 03:05:00,54.5,52.8,30.22,SW,221,3.0,-999.0,94,0.00,,,0.00,Wunderground v.1.15,2013-09-28 07:05:00,
2013-09-28 03:15:00,54.7,53.0,30.22,SW,219,1.0,-999.0,94,0.00,,,0.00,Wunderground v.1.15,2013-09-28 07:15:00,
2013-09-28 03:25:00,54.8,53.1,30.22,SW,218,1.0,-999.0,94,0.00,,,0.00,Wunderground v.1.15,2013-09-28 07:25:00,
2013-09-28 03:35:00,54.9,53.2,30.22,SW,218,1.0,-999.0,94,0.00,,,0.00,Wunderground v.1.15,2013-09-28 07:35:00,
2013-09-28 03:45:00,55.0,53.3,30.22,SW,218,0.0,-999.0,94,0.00,,,0.00,Wunderground v.1.15,2013-09-28 07:45:00,
2013-09-28 04:05:00,55.3,53.6,30.22,SW,218,0.0,-999.0,94,0.00,,,0.00,Wunderground v.1.15,2013-09-28 08:05:00,
2013-09-28 04:20:00,55.5,53.5,30.22,SW,218,0.0,-999.0,93,0.00,,,0.00,Wunderground v.1.15,2013-09-28 08:20:00,
2013-09-28 04:30:00,55.5,53.5,30.23,SW,218,0.0,-999.0,93,0.00,,,0.00,Wunderground v.1.15,2013-09-28 08:30:00,
2013-09-28 04:35:00,55.5,53.5,30.23,SW,218,0.0,-999.0,93,0.00,,,0.00,Wunderground v.1.15,2013-09-28 08:35:00,
2013-09-28 04:50:00,55.5,53.5,30.22,NE,46,0.0,-999.0,93,0.00,,,0.00,Wunderground v.1.15,2013-09-28 08:50:00,
2013-09-28 05:10:00,55.7,53.7,30.23,South,174,0.0,-999.0,93,0.00,,,0.00,Wunderground v.1.15,2013-09-28 09:10:00,
2013-09-28 05:15:00,55.9,53.9,30.23,SSW,207,0.0,-999.0,93,0.00,,,0.00,Wunderground v.1.15,2013-09-28 09:15:00,
2013-09-28 05:30:00,55.9,53.9,30.23,South,169,0.0,-999.0,93,0.00,,,0.00,Wunderground v.1.15,2013-09-28 09:30:00,
2013-09-28 05:40:00,56.0,53.7,30.23,SSW,207,0.0,-999.0,92,0.00,,,0.00,Wunderground v.1.15,2013-09-28 09:40:00,
2013-09-28 05:50:00,56.0,53.7,30.23,SSW,208,0.0,-999.0,92,0.00,,,0.00,Wunderground v.1.15,2013-09-28 09:50:00,
2013-09-28 06:15:00,55.9,53.9,30.24,SW,219,0.0,-999.0,93,0.00,,,0.00,Wunderground v.1.15,2013-09-28 10:15:00,
2013-09-28 06:30:00,56.1,54.1,30.24,SW,217,1.0,-999.0,93,0.00,,,0.00,Wunderground v.1.15,2013-09-28 10:30:00,
2013-09-28 06:40:00,56.1,54.1,30.24,WSW,249,2.0,-999.0,93,0.00,,,0.00,Wunderground v.1.15,2013-09-28 10:40:00,
2013-09-28 06:50:00,56.3,54.0,30.25,WSW,240,2.0,-999.0,92,0.00,,,0.00,Wunderground v.1.15,2013-09-28 10:50:00,
2013-09-28 06:55:00,56.3,54.0,30.25,SW,226,2.0,-999.0,92,0.00,,,0.00,Wunderground v.1.15,2013-09-28 10:55:00,
2013-09-28 07:05:00,56.3,54.0,30.25,SW,222,2.0,-999.0,92,0.00,,,0.00,Wunderground v.1.15,2013-09-28 11:05:00,
2013-09-28 07:15:00,56.5,54.2,30.25,SW,221,3.0,-999.0,92,0.00,,,0.00,Wunderground v.1.15,2013-09-28 11:15:00,
2013-09-28 07:25:00,56.6,54.0,30.26,SW,220,2.0,-999.0,91,0.00,,,0.00,Wunderground v.1.15,2013-09-28 11:25:00,
2013-09-28 07:35:00,56.7,54.1,30.26,SW,215,2.0,-999.0,91,0.00,,,0.00,Wunderground v.1.15,2013-09-28 11:35:00,
2013-09-28 07:45:00,56.7,54.1,30.26,South,191,1.0,-999.0,91,0.00,,,0.00,Wunderground v.1.15,2013-09-28 11:45:00,
2013-09-28 07:55:00,56.9,54.3,30.26,SSW,208,1.0,-999.0,91,0.00,,,0.00,Wunderground v.1.15,2013-09-28 11:55:00,
2013-09-28 08:10:00,57.1,54.5,30.26,WSW,242,0.0,-999.0,91,0.00,,,0.00,Wunderground v.1.15,2013-09-28 12:10:00,
2013-09-28 08:25:00,57.4,54.8,30.27,SSW,212,0.0,-999.0,91,0.00,,,0.00,Wunderground v.1.15,2013-09-28 12:25:00,
2013-09-28 08:30:00,57.5,54.9,30.27,SSW,207,0.0,-999.0,91,0.00,,,0.00,Wunderground v.1.15,2013-09-28 12:30:00,
2013-09-28 08:40:00,57.8,55.2,30.27,SW,217,1.0,-999.0,91,0.00,,,0.00,Wunderground v.1.15,2013-09-28 12:40:00,
2013-09-28 08:50:00,58.1,55.2,30.27,SW,231,2.0,-999.0,90,0.00,,,0.00,Wunderground v.1.15,2013-09-28 12:50:00,
2013-09-28 09:05:00,58.8,55.6,30.27,SW,222,2.0,-999.0,89,0.00,,,0.00,Wunderground v.1.15,2013-09-28 13:05:00,
2013-09-28 09:10:00,58.9,55.7,30.27,West,259,1.0,-999.0,89,0.00,,,0.00,Wunderground v.1.15,2013-09-28 13:10:00,
2013-09-28 09:15:00,59.3,55.7,30.27,WSW,249,1.0,-999.0,88,0.00,,,0.00,Wunderground v.1.15,2013-09-28 13:15:00,
2013-09-28 09:25:00,59.5,55.6,30.27,SW,225,3.0,-999.0,87,0.00,,,0.00,Wunderground v.1.15,2013-09-28 13:25:00,
2013-09-28 09:30:00,59.6,55.4,30.27,SSW,205,4.0,-999.0,86,0.00,,,0.00,Wunderground v.1.15,2013-09-28 13:30:00,
2013-09-28 09:45:00,60.2,55.3,30.28,SSW,205,3.0,-999.0,84,0.00,,,0.00,Wunderground v.1.15,2013-09-28 13:45:00,
2013-09-28 09:55:00,60.1,55.2,30.28,SSW,213,2.0,-999.0,84,0.00,,,0.00,Wunderground v.1.15,2013-09-28 13:55:00,
2013-09-28 10:05:00,60.0,55.2,30.28,WSW,252,1.0,-999.0,84,0.00,,,0.00,Wunderground v.1.15,2013-09-28 14:05:00,
2013-09-28 10:10:00,60.2,55.7,30.28,SW,214,2.0,-999.0,85,0.00,,,0.00,Wunderground v.1.15,2013-09-28 14:10:00,
2013-09-28 10:20:00,61.2,55.7,30.28,SW,221,3.0,-999.0,82,0.00,,,0.00,Wunderground v.1.15,2013-09-28 14:20:00,
2013-09-28 10:25:00,61.6,55.0,30.28,SW,221,5.0,-999.0,79,0.00,,,0.00,Wunderground v.1.15,2013-09-28 14:25:00,
2013-09-28 10:35:00,62.3,55.4,30.28,West,262,5.0,-999.0,78,0.00,,,0.00,Wunderground v.1.15,2013-09-28 14:35:00,
2013-09-28 10:45:00,62.7,55.4,30.28,SW,215,6.0,-999.0,77,0.00,,,0.00,Wunderground v.1.15,2013-09-28 14:45:00,
2013-09-28 10:55:00,63.4,55.3,30.28,WSW,250,5.0,-999.0,75,0.00,,,0.00,Wunderground v.1.15,2013-09-28 14:55:00,
2013-09-28 11:10:00,64.6,55.7,30.28,SSW,198,4.0,-999.0,73,0.00,,,0.00,Wunderground v.1.15,2013-09-28 15:10:00,
2013-09-28 11:20:00,64.0,54.4,30.27,WSW,252,4.0,-999.0,71,0.00,,,0.00,Wunderground v.1.15,2013-09-28 15:20:00,
2013-09-28 11:30:00,64.1,54.5,30.27,SSW,207,3.0,-999.0,71,0.00,,,0.00,Wunderground v.1.15,2013-09-28 15:30:00,
2013-09-28 11:45:00,64.1,54.9,30.27,WSW,248,2.0,-999.0,72,0.00,,,0.00,Wunderground v.1.15,2013-09-28 15:45:00,
2013-09-28 12:05:00,64.9,54.5,30.26,SW,222,4.0,-999.0,69,0.00,,,0.00,Wunderground v.1.15,2013-09-28 16:05:00,
2013-09-28 12:10:00,65.1,54.3,30.26,SW,217,4.0,-999.0,68,0.00,,,0.00,Wunderground v.1.15,2013-09-28 16:10:00,
2013-09-28 12:20:00,66.6,55.3,30.26,WSW,258,4.0,-999.0,67,0.00,,,0.00,Wunderground v.1.15,2013-09-28 16:20:00,
2013-09-28 12:25:00,67.6,55.8,30.26,SW,233,2.0,-999.0,66,0.00,,,0.00,Wunderground v.1.15,2013-09-28 16:25:00,
2013-09-28 12:35:00,67.6,54.6,30.26,South,173,4.0,-999.0,63,0.00,,,0.00,Wunderground v.1.15,2013-09-28 16:35:00,
2013-09-28 12:40:00,67.5,54.9,30.25,West,259,5.0,-999.0,64,0.00,,,0.00,Wunderground v.1.15,2013-09-28 16:40:00,
2013-09-28 12:50:00,66.8,53.4,30.25,WSW,250,7.0,-999.0,62,0.00,,,0.00,Wunderground v.1.15,2013-09-28 16:50:00,
2013-09-28 13:10:00,68.2,53.8,30.25,NW,323,5.0,-999.0,60,0.00,,,0.00,Wunderground v.1.15,2013-09-28 17:10:00,
2013-09-28 13:15:00,68.4,53.5,30.25,WSW,245,6.0,-999.0,59,0.00,,,0.00,Wunderground v.1.15,2013-09-28 17:15:00,
2013-09-28 13:20:00,68.0,52.7,30.24,SW,226,6.0,-999.0,58,0.00,,,0.00,Wunderground v.1.15,2013-09-28 17:20:00,
2013-09-28 13:30:00,68.2,53.8,30.24,WNW,302,5.0,-999.0,60,0.00,,,0.00,Wunderground v.1.15,2013-09-28 17:30:00,
2013-09-28 13:35:00,69.4,54.0,30.23,NNW,333,3.0,-999.0,58,0.00,,,0.00,Wunderground v.1.15,2013-09-28 17:35:00,
2013-09-28 13:40:00,70.2,55.2,30.23,WSW,247,1.0,-999.0,59,0.00,,,0.00,Wunderground v.1.15,2013-09-28 17:40:00,
2013-09-28 13:55:00,68.3,52.5,30.23,WSW,238,6.0,-999.0,57,0.00,,,0.00,Wunderground v.1.15,2013-09-28 17:55:00,
2013-09-28 14:05:00,69.2,54.3,30.22,North,353,3.0,-999.0,59,0.00,,,0.00,Wunderground v.1.15,2013-09-28 18:05:00,
2013-09-28 14:10:00,69.8,52.9,30.22,West,259,3.0,-999.0,55,0.00,,,0.00,Wunderground v.1.15,2013-09-28 18:10:00,
2013-09-28 14:20:00,70.3,52.4,30.22,WSW,245,4.0,-999.0,53,0.00,,,0.00,Wunderground v.1.15,2013-09-28 18:20:00,
2013-09-28 14:30:00,70.1,53.7,30.22,WNW,294,3.0,-999.0,56,0.00,,,0.00,Wunderground v.1.15,2013-09-28 18:30:00,
2013-09-28 14:40:00,69.6,52.7,30.21,NW,316,4.0,-999.0,55,0.00,,,0.00,Wunderground v.1.15,2013-09-28 18:40:00,
2013-09-28 14:45:00,69.7,52.8,30.21,NNW,345,5.0,-999.0,55,0.00,,,0.00,Wunderground v.1.15,2013-09-28 18:45:00,
2013-09-28 14:50:00,70.2,53.3,30.21,NNE,12,6.0,-999.0,55,0.00,,,0.00,Wunderground v.1.15,2013-09-28 18:50:00,
2013-09-28 15:10:00,71.9,52.8,30.21,WNW,293,5.0,-999.0,51,0.00,,,0.00,Wunderground v.1.15,2013-09-28 19:10:00,
2013-09-28 15:20:00,69.6,52.2,30.21,WSW,247,6.0,-999.0,54,0.00,,,0.00,Wunderground v.1.15,2013-09-28 19:20:00,
2013-09-28 15:35:00,68.6,53.7,30.21,West,263,4.0,-999.0,59,0.00,,,0.00,Wunderground v.1.15,2013-09-28 19:35:00,
2013-09-28 15:45:00,69.7,52.3,30.20,WNW,297,4.0,-999.0,54,0.00,,,0.00,Wunderground v.1.15,2013-09-28 19:45:00,
2013-09-28 15:50:00,70.4,53.0,30.20,West,270,4.0,-999.0,54,0.00,,,0.00,Wunderground v.1.15,2013-09-28 19:50:00,
2013-09-28 15:55:00,70.8,52.3,30.20,NNW,335,4.0,-999.0,52,0.00,,,0.00,Wunderground v.1.15,2013-09-28 19:55:00,
2013-09-28 16:10:00,71.4,52.3,30.20,West,267,3.0,-999.0,51,0.00,,,0.00,Wunderground v.1.15,2013-09-28 20:10:00,
2013-09-28 16:25:00,71.4,52.9,30.19,NNW,341,5.0,-999.0,52,0.00,,,0.00,Wunderground v.1.15,2013-09-28 20:25:00,
2013-09-28 16:35:00,72.3,52.1,30.19,North,350,6.0,-999.0,49,0.00,,,0.00,Wunderground v.1.15,2013-09-28 20:35:00,
2013-09-28 16:40:00,72.1,52.4,30.19,WNW,294,6.0,-999.0,50,0.00,,,0.00,Wunderground v.1.15,2013-09-28 20:40:00,
2013-09-28 16:45:00,71.9,51.7,30.19,NW,316,6.0,-999.0,49,0.00,,,0.00,Wunderground v.1.15,2013-09-28 20:45:00,
2013-09-28 16:55:00,71.1,49.8,30.19,WSW,239,5.0,-999.0,47,0.00,,,0.00,Wunderground v.1.15,2013-09-28 20:55:00,
2013-09-28 17:10:00,70.6,51.1,30.19,WSW,240,5.0,-999.0,50,0.00,,,0.00,Wunderground v.1.15,2013-09-28 21:10:00,
2013-09-28 17:15:00,70.5,49.9,30.19,WSW,240,6.0,-999.0,48,0.00,,,0.00,Wunderground v.1.15,2013-09-28 21:15:00,
2013-09-28 17:40:00,70.0,49.4,30.19,WNW,294,3.0,-999.0,48,0.00,,,0.00,Wunderground v.1.15,2013-09-28 21:40:00,
2013-09-28 17:45:00,70.0,49.4,30.19,West,269,4.0,-999.0,48,0.00,,,0.00,Wunderground v.1.15,2013-09-28 21:45:00,
2013-09-28 17:55:00,70.0,50.0,30.19,WSW,242,3.0,-999.0,49,0.00,,,0.00,Wunderground v.1.15,2013-09-28 21:55:00,
2013-09-28 18:15:00,69.7,51.3,30.19,West,267,2.0,-999.0,52,0.00,,,0.00,Wunderground v.1.15,2013-09-28 22:15:00,
2013-09-28 18:25:00,69.6,51.2,30.19,West,268,2.0,-999.0,52,0.00,,,0.00,Wunderground v.1.15,2013-09-28 22:25:00,
2013-09-28 18:35:00,69.0,51.2,30.19,West,264,1.0,-999.0,53,0.00,,,0.00,Wunderground v.1.15,2013-09-28 22:35:00,
2013-09-28 18:40:00,68.3,52.0,30.19,WSW,256,2.0,-999.0,56,0.00,,,0.00,Wunderground v.1.15,2013-09-28 22:40:00,
2013-09-28 18:55:00,66.8,52.0,30.19,West,269,3.0,-999.0,59,0.00,,,0.00,Wunderground v.1.15,2013-09-28 22:55:00,
2013-09-28 19:10:00,65.8,52.0,30.19,West,263,3.0,-999.0,61,0.00,,,0.00,Wunderground v.1.15,2013-09-28 23:10:00,
2013-09-28 19:15:00,65.5,52.1,30.19,WNW,290,3.0,-999.0,62,0.00,,,0.00,Wunderground v.1.15,2013-09-28 23:15:00,
2013-09-28 19:20:00,65.0,52.1,30.19,WSW,253,3.0,-999.0,63,0.00,,,0.00,Wunderground v.1.15,2013-09-28 23:20:00,
2013-09-28 19:30:00,64.0,52.0,30.19,WSW,256,0.0,-999.0,65,0.00,,,0.00,Wunderground v.1.15,2013-09-28 23:30:00,
2013-09-28 19:45:00,62.2,53.4,30.20,SSW,201,1.0,-999.0,73,0.00,,,0.00,Wunderground v.1.15,2013-09-28 23:45:00,
2013-09-28 19:55:00,61.0,53.7,30.20,SSW,205,2.0,-999.0,77,0.00,,,0.00,Wunderground v.1.15,2013-09-28 23:55:00,
2013-09-28 20:10:00,59.9,53.7,30.20,SSW,203,2.0,-999.0,80,0.00,,,0.00,Wunderground v.1.15,2013-09-29 00:10:00,
2013-09-28 20:20:00,59.4,53.6,30.21,SSW,195,1.0,-999.0,81,0.00,,,0.00,Wunderground v.1.15,2013-09-29 00:20:00,
2013-09-28 20:30:00,58.9,53.7,30.20,SSW,200,0.0,-999.0,83,0.00,,,0.00,Wunderground v.1.15,2013-09-29 00:30:00,
2013-09-28 20:40:00,58.4,53.3,30.20,SSW,211,1.0,-999.0,83,0.00,,,0.00,Wunderground v.1.15,2013-09-29 00:40:00,
2013-09-28 20:45:00,58.2,53.4,30.20,SSW,203,1.0,-999.0,84,0.00,,,0.00,Wunderground v.1.15,2013-09-29 00:45:00,
2013-09-28 20:55:00,57.6,53.1,30.21,SSW,201,1.0,-999.0,85,0.00,,,0.00,Wunderground v.1.15,2013-09-29 00:55:00,
2013-09-28 21:05:00,57.1,53.0,30.20,SSW,201,0.0,-999.0,86,0.00,,,0.00,Wunderground v.1.15,2013-09-29 01:05:00,
2013-09-28 21:15:00,56.7,52.9,30.20,SSW,201,0.0,-999.0,87,0.00,,,0.00,Wunderground v.1.15,2013-09-29 01:15:00,
2013-09-28 21:25:00,56.4,52.6,30.21,SSW,201,0.0,-999.0,87,0.00,,,0.00,Wunderground v.1.15,2013-09-29 01:25:00,
2013-09-28 21:30:00,56.3,52.8,30.20,SSW,201,0.0,-999.0,88,0.00,,,0.00,Wunderground v.1.15,2013-09-29 01:30:00,
2013-09-28 21:40:00,56.1,52.3,30.20,SSW,201,1.0,-999.0,87,0.00,,,0.00,Wunderground v.1.15,2013-09-29 01:40:00,
2013-09-28 21:45:00,55.8,52.0,30.21,SSW,209,1.0,-999.0,87,0.00,,,0.00,Wunderground v.1.15,2013-09-29 01:45:00,
2013-09-28 22:10:00,55.1,51.9,30.21,SSW,210,0.0,-999.0,89,0.00,,,0.00,Wunderground v.1.15,2013-09-29 02:10:00,
2013-09-28 22:25:00,54.7,51.5,30.21,SSW,197,0.0,-999.0,89,0.00,,,0.00,Wunderground v.1.15,2013-09-29 02:25:00,
2013-09-28 22:40:00,54.5,51.3,30.21,SSW,197,1.0,-999.0,89,0.00,,,0.00,Wunderground v.1.15,2013-09-29 02:40:00,
2013-09-28 22:55:00,54.2,51.0,30.21,SSW,197,0.0,-999.0,89,0.00,,,0.00,Wunderground v.1.15,2013-09-29 02:55:00,
2013-09-28 23:00:00,54.1,50.9,30.21,SSW,203,0.0,-999.0,89,0.00,,,0.00,Wunderground v.1.15,2013-09-29 03:00:00,
2013-09-28 23:25:00,54.4,50.9,30.20,SW,217,2.0,-999.0,88,0.00,,,0.00,Wunderground v.1.15,2013-09-29 03:25:00,
2013-09-28 23:35:00,54.0,50.5,30.20,SSW,200,1.0,-999.0,88,0.00,,,0.00,Wunderground v.1.15,2013-09-29 03:35:00,